createdAt,value
2018-07-27T00:02:25.951Z,97.30
2018-07-27T00:04:53.541Z,97.60
2018-07-27T00:07:21.177Z,98.20
2018-07-27T00:09:48.710Z,98.40
2018-07-27T00:12:16.250Z,98.80
2018-07-27T00:14:43.948Z,98.80
2018-07-27T00:17:11.610Z,99.20
2018-07-27T00:19:39.140Z,99.50
2018-07-27T00:22:06.688Z,99.60
2018-07-27T00:24:34.248Z,99.90
2018-07-27T00:27:01.799Z,99.90
2018-07-27T00:29:29.353Z,99.90
2018-07-27T00:31:56.932Z,99.90
2018-07-27T00:34:24.633Z,99.90
2018-07-27T00:36:52.218Z,99.90
2018-07-27T00:39:19.733Z,99.90
2018-07-27T00:41:47.400Z,99.90
2018-07-27T00:44:14.996Z,99.90
2018-07-27T00:46:42.619Z,99.90
2018-07-27T00:49:10.149Z,99.90
2018-07-27T00:51:37.695Z,99.90
2018-07-27T00:54:05.222Z,99.90
2018-07-27T00:56:32.761Z,99.90
2018-07-27T00:59:00.316Z,99.90
2018-07-27T01:03:55.440Z,99.90
2018-07-27T01:06:23.822Z,99.90
2018-07-27T01:08:51.408Z,99.90
2018-07-27T01:13:46.448Z,99.90
2018-07-27T01:16:13.986Z,99.90
2018-07-27T01:18:41.534Z,99.90
2018-07-27T01:23:36.700Z,99.90
2018-07-27T01:26:04.417Z,99.90
2018-07-27T01:28:31.936Z,99.90
2018-07-27T01:30:59.438Z,99.90
2018-07-27T01:35:55.079Z,99.90
2018-07-27T01:38:22.601Z,99.90
2018-07-27T01:40:50.146Z,99.90
2018-07-27T01:43:17.645Z,99.90
2018-07-27T01:48:12.711Z,99.90
2018-07-27T01:50:40.200Z,99.90
2018-07-27T01:55:35.467Z,99.90
2018-07-27T01:58:03.047Z,99.90
2018-07-27T02:00:30.703Z,99.90
2018-07-27T02:02:58.366Z,99.90
2018-07-27T02:05:25.900Z,99.90
2018-07-27T02:07:53.489Z,99.90
2018-07-27T02:10:21.032Z,99.90
2018-07-27T02:12:48.656Z,99.90
2018-07-27T02:15:16.365Z,99.90
2018-07-27T02:17:43.955Z,99.90
2018-07-27T02:20:11.526Z,99.90
2018-07-27T02:22:39.093Z,99.90
2018-07-27T02:25:06.636Z,99.90
2018-07-27T02:27:34.181Z,99.90
2018-07-27T02:30:01.722Z,99.90
2018-07-27T02:32:29.329Z,99.90
2018-07-27T02:34:56.882Z,99.90
2018-07-27T02:37:24.492Z,99.90
2018-07-27T02:39:52.055Z,99.90
2018-07-27T02:42:19.610Z,99.90
2018-07-27T02:44:47.186Z,99.90
2018-07-27T02:47:14.696Z,99.90
2018-07-27T02:49:42.254Z,99.90
2018-07-27T02:52:09.757Z,99.90
2018-07-27T02:54:37.303Z,99.90
2018-07-27T02:57:04.844Z,99.90
2018-07-27T02:59:32.403Z,99.90
2018-07-27T03:01:59.942Z,99.90
2018-07-27T03:04:27.479Z,99.90
2018-07-27T03:06:54.985Z,99.90
2018-07-27T03:09:22.542Z,99.90
2018-07-27T03:11:50.080Z,99.90
2018-07-27T03:14:17.675Z,99.90
2018-07-27T03:16:45.209Z,99.90
2018-07-27T03:19:12.871Z,99.90
2018-07-27T03:21:40.399Z,99.90
2018-07-27T03:24:07.989Z,99.90
2018-07-27T03:26:35.534Z,99.90
2018-07-27T03:29:03.223Z,99.90
2018-07-27T03:31:30.777Z,99.90
2018-07-27T03:33:58.326Z,99.90
2018-07-27T03:36:25.831Z,99.90
2018-07-27T03:41:20.937Z,99.90
2018-07-27T03:46:16.115Z,99.90
2018-07-27T03:48:43.655Z,99.90
2018-07-27T03:51:11.185Z,99.90
2018-07-27T03:53:38.732Z,99.90
2018-07-27T03:56:06.271Z,99.90
2018-07-27T03:58:33.796Z,99.90
2018-07-27T04:01:01.338Z,99.90
2018-07-27T04:03:28.940Z,99.90
2018-07-27T04:05:56.491Z,99.90
2018-07-27T04:08:24.048Z,99.90
2018-07-27T04:10:51.589Z,99.90
2018-07-27T04:13:19.180Z,99.90
2018-07-27T04:15:46.692Z,99.90
2018-07-27T04:18:14.233Z,99.90
2018-07-27T04:23:09.295Z,99.90
2018-07-27T04:25:36.831Z,99.90
2018-07-27T04:28:04.656Z,99.90
2018-07-27T04:30:32.185Z,99.90
2018-07-27T04:32:59.733Z,99.90
2018-07-27T04:35:27.329Z,99.90
2018-07-27T04:37:54.852Z,99.90
2018-07-27T04:40:22.460Z,99.90
2018-07-27T04:42:50.035Z,99.90
2018-07-27T04:45:17.654Z,99.90
2018-07-27T04:47:45.181Z,99.90
2018-07-27T04:50:12.748Z,99.90
2018-07-27T04:52:40.271Z,99.90
2018-07-27T04:55:07.868Z,99.90
2018-07-27T04:57:35.384Z,99.90
2018-07-27T05:00:03.626Z,99.90
2018-07-27T05:02:31.375Z,99.90
2018-07-27T05:04:58.951Z,99.90
2018-07-27T05:07:26.484Z,99.90
2018-07-27T05:09:54.032Z,99.90
2018-07-27T05:12:21.558Z,99.90
2018-07-27T05:14:49.166Z,99.90
2018-07-27T05:17:16.679Z,99.90
2018-07-27T05:19:44.223Z,99.90
2018-07-27T05:22:11.939Z,99.90
2018-07-27T05:24:39.631Z,99.90
2018-07-27T05:27:07.141Z,99.90
2018-07-27T05:29:34.756Z,99.90
2018-07-27T05:34:29.804Z,99.90
2018-07-27T05:36:57.364Z,99.90
2018-07-27T05:39:24.920Z,99.90
2018-07-27T05:41:52.457Z,99.90
2018-07-27T05:44:20.019Z,99.90
2018-07-27T05:46:47.632Z,99.90
2018-07-27T05:49:15.288Z,99.90
2018-07-27T05:51:43.013Z,99.90
2018-07-27T05:54:10.592Z,99.90
2018-07-27T05:56:38.148Z,99.90
2018-07-27T05:59:05.754Z,99.90
2018-07-27T06:01:33.316Z,99.90
2018-07-27T06:06:28.464Z,99.90
2018-07-27T06:08:56.011Z,99.90
2018-07-27T06:18:46.249Z,99.90
2018-07-27T06:21:13.959Z,99.90
2018-07-27T06:23:41.670Z,99.90
2018-07-27T06:26:09.296Z,99.90
2018-07-27T06:28:36.839Z,99.90
2018-07-27T06:31:04.500Z,99.90
2018-07-27T06:33:32.169Z,99.90
2018-07-27T06:35:59.746Z,99.90
2018-07-27T06:38:27.477Z,99.90
2018-07-27T06:40:55.166Z,99.90
2018-07-27T06:43:22.714Z,99.90
2018-07-27T06:45:50.368Z,99.90
2018-07-27T06:48:19.047Z,99.90
2018-07-27T06:50:48.048Z,99.90
2018-07-27T06:53:15.705Z,99.90
2018-07-27T06:55:43.893Z,99.90
2018-07-27T06:58:11.414Z,99.90
2018-07-27T07:00:38.976Z,99.90
2018-07-27T07:03:06.506Z,99.90
2018-07-27T07:05:34.055Z,99.90
2018-07-27T07:08:01.598Z,99.90
2018-07-27T07:12:56.648Z,99.90
2018-07-27T07:15:24.346Z,99.90
2018-07-27T07:17:51.870Z,99.90
2018-07-27T07:20:19.438Z,99.90
2018-07-27T07:22:46.973Z,99.90
2018-07-27T07:25:14.566Z,99.90
2018-07-27T07:27:42.091Z,99.90
2018-07-27T07:30:09.697Z,99.90
2018-07-27T07:32:37.232Z,99.90
2018-07-27T07:35:04.961Z,99.90
2018-07-27T07:40:00.041Z,99.90
2018-07-27T07:42:27.620Z,99.90
2018-07-27T07:47:22.762Z,99.90
2018-07-27T07:49:50.576Z,99.90
2018-07-27T07:52:18.114Z,99.90
2018-07-27T07:54:45.794Z,99.90
2018-07-27T07:57:13.328Z,99.90
2018-07-27T07:59:40.894Z,99.90
2018-07-27T08:02:08.419Z,99.90
2018-07-27T08:04:36.029Z,99.90
2018-07-27T08:07:03.689Z,99.90
2018-07-27T08:09:31.257Z,99.90
2018-07-27T08:11:59.416Z,99.90
2018-07-27T08:14:26.984Z,99.90
2018-07-27T08:16:54.562Z,99.90
2018-07-27T08:19:22.124Z,99.90
2018-07-27T08:21:49.716Z,99.90
2018-07-27T08:24:17.269Z,99.90
2018-07-27T08:26:48.827Z,99.90
2018-07-27T08:29:20.526Z,99.90
2018-07-27T08:31:49.514Z,99.90
2018-07-27T08:34:17.685Z,99.90
2018-07-27T08:36:45.666Z,99.90
2018-07-27T08:39:15.156Z,99.90
2018-07-27T08:41:43.148Z,99.90
2018-07-27T08:44:11.922Z,99.90
2018-07-27T08:46:39.611Z,99.90
2018-07-27T08:51:35.002Z,99.90
2018-07-27T08:54:02.601Z,99.90
2018-07-27T08:58:57.701Z,99.90
2018-07-27T09:01:25.298Z,99.90
2018-07-27T09:03:53.307Z,99.90
2018-07-27T09:06:20.904Z,99.90
2018-07-27T09:08:49.248Z,99.90
2018-07-27T09:11:17.016Z,99.90
2018-07-27T09:13:44.566Z,99.90
2018-07-27T09:16:12.128Z,99.90
2018-07-27T09:18:39.680Z,99.90
2018-07-27T09:21:07.239Z,99.90
2018-07-27T09:23:35.092Z,99.90
2018-07-27T09:26:02.691Z,99.90
2018-07-27T09:28:30.324Z,99.90
2018-07-27T09:30:57.889Z,99.90
2018-07-27T09:33:25.403Z,99.90
2018-07-27T09:35:53.381Z,99.90
2018-07-27T09:38:21.075Z,99.90
2018-07-27T09:40:48.968Z,99.90
2018-07-27T09:43:16.992Z,99.90
2018-07-27T09:45:44.796Z,99.90
2018-07-27T09:48:12.419Z,99.90
2018-07-27T09:50:40.428Z,99.90
2018-07-27T09:53:07.982Z,99.90
2018-07-27T09:58:03.124Z,99.90
2018-07-27T10:05:31.502Z,99.90
2018-07-27T10:07:59.346Z,99.90
2018-07-27T10:10:26.907Z,99.90
2018-07-27T10:12:54.510Z,99.90
2018-07-27T10:15:23.149Z,99.90
2018-07-27T10:17:50.720Z,99.90
2018-07-27T10:20:18.298Z,99.90
2018-07-27T10:22:45.827Z,99.90
2018-07-27T10:25:13.496Z,99.90
2018-07-27T10:27:41.073Z,99.90
2018-07-27T10:30:08.580Z,99.90
2018-07-27T10:32:36.293Z,99.90
2018-07-27T10:35:03.837Z,99.90
2018-07-27T10:37:31.808Z,99.90
2018-07-27T10:39:59.462Z,99.90
2018-07-27T10:42:27.022Z,99.90
2018-07-27T10:44:54.625Z,99.90
2018-07-27T10:47:22.176Z,99.90
2018-07-27T10:52:17.683Z,99.90
2018-07-27T10:54:45.263Z,99.90
2018-07-27T10:57:12.875Z,99.90
2018-07-27T10:59:40.403Z,99.90
2018-07-27T11:02:08.112Z,99.90
2018-07-27T11:04:35.771Z,99.90
2018-07-27T11:07:03.415Z,99.90
2018-07-27T11:09:31.077Z,99.90
2018-07-27T11:11:58.623Z,99.90
2018-07-27T11:14:26.141Z,99.90
2018-07-27T11:21:48.841Z,99.90
2018-07-27T11:24:16.345Z,99.90
2018-07-27T11:26:43.910Z,99.90
2018-07-27T11:29:11.544Z,99.90
2018-07-27T11:31:39.108Z,99.90
2018-07-27T11:34:06.633Z,99.90
2018-07-27T11:36:34.219Z,99.50
2018-07-27T11:39:03.876Z,99.40
2018-07-27T11:41:31.451Z,99.60
2018-07-27T11:43:58.962Z,98.60
2018-07-27T11:46:26.534Z,99.10
2018-07-27T11:51:22.157Z,98.50
2018-07-27T11:53:49.695Z,98.60
2018-07-27T11:56:17.190Z,98.40
2018-07-27T12:01:12.364Z,98.20
2018-07-27T12:03:39.937Z,97.90
2018-07-27T12:06:07.476Z,97.80
2018-07-27T12:08:35.020Z,97.40
2018-07-27T12:11:02.615Z,96.80
2018-07-27T12:13:30.263Z,97.20
2018-07-27T12:15:57.919Z,97.00
2018-07-27T12:18:25.580Z,97.20
2018-07-27T12:20:53.379Z,96.80
2018-07-27T12:25:48.203Z,96.00
2018-07-27T12:28:15.774Z,95.00
2018-07-27T12:30:43.357Z,95.80
2018-07-27T12:33:10.631Z,95.60
2018-07-27T12:38:35.014Z,96.00
2018-07-27T12:41:02.506Z,96.00
2018-07-27T12:43:30.029Z,95.70
2018-07-27T12:45:57.535Z,95.50
2018-07-27T12:50:53.060Z,95.30
2018-07-27T12:53:20.589Z,95.30
2018-07-27T12:55:48.089Z,95.10
2018-07-27T12:58:15.592Z,95.10
2018-07-27T13:00:43.104Z,95.10
2018-07-27T13:03:10.622Z,95.50
2018-07-27T13:05:38.112Z,95.60
2018-07-27T13:08:05.660Z,94.80
2018-07-27T13:10:33.200Z,95.00
2018-07-27T13:13:00.712Z,94.60
2018-07-27T13:15:28.220Z,93.70
2018-07-27T13:17:55.764Z,93.70
2018-07-27T13:20:23.427Z,94.10
2018-07-27T13:22:50.989Z,94.40
2018-07-27T13:25:18.570Z,92.40
2018-07-27T13:30:13.535Z,92.90
2018-07-27T13:37:36.474Z,93.00
2018-07-27T13:40:04.910Z,92.00
2018-07-27T13:42:33.856Z,92.10
2018-07-27T13:45:01.394Z,91.50
2018-07-27T13:49:56.676Z,91.60
2018-07-27T13:52:24.239Z,91.50
2018-07-27T13:54:51.808Z,90.30
2018-07-27T13:57:19.400Z,89.90
2018-07-27T13:59:46.938Z,90.40
2018-07-27T14:02:14.676Z,90.10
2018-07-27T14:04:42.215Z,90.50
2018-07-27T14:07:10.604Z,90.10
2018-07-27T14:09:38.222Z,90.40
2018-07-27T14:14:33.412Z,90.20
2018-07-27T14:17:00.952Z,89.80
2018-07-27T14:19:29.127Z,90.70
2018-07-27T14:21:56.666Z,91.00
2018-07-27T14:24:24.224Z,90.90
2018-07-27T14:26:51.868Z,90.50
2018-07-27T14:29:19.508Z,90.50
2018-07-27T14:31:46.956Z,90.60
2018-07-27T14:34:14.506Z,90.60
2018-07-27T14:36:42.036Z,90.20
2018-07-27T14:39:11.551Z,91.10
2018-07-27T14:41:39.106Z,91.00
2018-07-27T14:46:34.516Z,90.30
2018-07-27T14:49:02.108Z,90.40
2018-07-27T14:51:29.723Z,90.60
2018-07-27T14:53:57.274Z,91.00
2018-07-27T14:56:24.752Z,91.10
2018-07-27T14:58:52.288Z,91.20
2018-07-27T15:01:19.790Z,90.70
2018-07-27T15:03:47.339Z,91.00
2018-07-27T15:06:14.855Z,91.10
2018-07-27T15:08:42.456Z,91.10
2018-07-27T15:11:09.973Z,91.80
2018-07-27T15:13:37.509Z,91.80
2018-07-27T15:18:32.897Z,91.10
2018-07-27T15:21:00.378Z,89.80
2018-07-27T15:25:55.411Z,90.30
2018-07-27T15:28:23.187Z,90.30
2018-07-27T15:30:50.838Z,90.20
2018-07-27T15:33:18.437Z,90.30
2018-07-27T15:35:45.959Z,90.30
2018-07-27T15:38:13.468Z,89.40
2018-07-27T15:40:40.996Z,89.70
2018-07-27T15:43:08.514Z,88.50
2018-07-27T15:48:03.591Z,86.60
2018-07-27T15:50:31.242Z,86.70
2018-07-27T15:52:59.796Z,87.40
2018-07-27T15:55:27.318Z,87.80
2018-07-27T16:00:24.256Z,88.50
2018-07-27T16:02:52.206Z,89.40
2018-07-27T16:05:19.721Z,90.00
2018-07-27T16:07:47.325Z,88.70
2018-07-27T16:10:14.881Z,88.80
2018-07-27T16:12:42.363Z,89.00
2018-07-27T16:15:09.868Z,89.70
2018-07-27T16:17:37.395Z,90.10
2018-07-27T16:20:05.014Z,89.10
2018-07-27T16:22:32.573Z,90.00
2018-07-27T16:25:00.165Z,89.30
2018-07-27T16:29:57.899Z,88.40
2018-07-27T16:32:25.403Z,89.70
2018-07-27T16:34:52.943Z,89.10
2018-07-27T16:37:20.455Z,89.60
2018-07-27T16:39:47.984Z,88.00
2018-07-27T16:42:15.496Z,88.40
2018-07-27T16:44:43.037Z,88.30
2018-07-27T16:47:10.559Z,88.40
2018-07-27T16:49:38.092Z,89.10
2018-07-27T16:52:05.632Z,89.60
2018-07-27T16:54:33.135Z,88.80
2018-07-27T16:57:00.754Z,88.60
2018-07-27T16:59:28.312Z,88.20
2018-07-27T17:01:55.851Z,88.50
2018-07-27T17:04:23.365Z,88.40
2018-07-27T17:09:18.413Z,87.80
2018-07-27T17:11:45.927Z,87.60
2018-07-27T17:14:13.438Z,87.80
2018-07-27T17:16:40.954Z,88.70
2018-07-27T17:21:36.275Z,88.60
2018-07-27T17:24:03.838Z,88.60
2018-07-27T17:28:58.903Z,89.20
2018-07-27T17:31:26.509Z,88.60
2018-07-27T17:33:54.012Z,87.10
2018-07-27T17:36:21.554Z,86.90
2018-07-27T17:38:49.443Z,86.40
2018-07-27T17:41:16.990Z,85.60
2018-07-27T17:43:44.506Z,85.60
2018-07-27T17:46:12.062Z,85.30
2018-07-27T17:48:39.546Z,84.30
2018-07-27T17:51:07.237Z,83.10
2018-07-27T17:53:34.750Z,82.40
2018-07-27T17:56:02.561Z,82.00
2018-07-27T17:58:30.080Z,81.40
2018-07-27T18:00:58.155Z,81.00
2018-07-27T18:03:25.695Z,80.70
2018-07-27T18:10:56.441Z,80.10
2018-07-27T18:15:51.510Z,81.10
2018-07-27T18:18:19.054Z,80.10
2018-07-27T18:20:46.574Z,81.00
2018-07-27T18:23:14.096Z,79.30
2018-07-27T18:25:41.649Z,81.40
2018-07-27T18:28:09.274Z,80.90
2018-07-27T18:30:36.804Z,81.60
2018-07-27T18:33:04.436Z,81.80
2018-07-27T18:35:31.945Z,81.40
2018-07-27T18:37:59.482Z,81.70
2018-07-27T18:40:27.078Z,82.30
2018-07-27T18:42:54.628Z,82.40
2018-07-27T18:45:22.266Z,82.70
2018-07-27T18:47:49.919Z,83.40
2018-07-27T18:50:17.459Z,83.90
2018-07-27T18:52:45.032Z,84.90
2018-07-27T18:57:40.080Z,84.10
2018-07-27T19:00:08.354Z,84.10
2018-07-27T19:02:36.055Z,85.30
2018-07-27T19:05:03.607Z,86.40
2018-07-27T19:07:32.006Z,87.30
2018-07-27T19:09:59.510Z,87.90
2018-07-27T19:12:27.107Z,87.40
2018-07-27T19:14:54.627Z,90.00
2018-07-27T19:17:22.158Z,89.60
2018-07-27T19:19:49.994Z,90.00
2018-07-27T19:22:17.531Z,90.00
2018-07-27T19:27:12.629Z,91.00
2018-07-27T19:29:40.149Z,91.20
2018-07-27T19:34:35.180Z,91.00
2018-07-27T19:37:02.796Z,90.60
2018-07-27T19:39:30.370Z,91.10
2018-07-27T19:41:57.917Z,90.80
2018-07-27T19:44:25.572Z,90.90
2018-07-27T19:49:20.639Z,91.50
2018-07-27T19:54:15.845Z,91.60
2018-07-27T19:59:10.874Z,91.90
2018-07-27T20:01:38.392Z,91.50
2018-07-27T20:04:05.947Z,91.80
2018-07-27T20:06:33.489Z,92.10
2018-07-27T20:09:01.020Z,92.00
2018-07-27T20:11:29.426Z,91.90
2018-07-27T20:13:56.935Z,92.60
2018-07-27T20:16:24.449Z,92.40
2018-07-27T20:18:51.971Z,92.60
2018-07-27T20:21:19.511Z,92.90
2018-07-27T20:23:47.011Z,93.00
2018-07-27T20:26:14.515Z,92.80
2018-07-27T20:28:42.080Z,92.90
2018-07-27T20:33:37.135Z,93.30
2018-07-27T20:36:04.803Z,93.50
2018-07-27T20:38:32.328Z,94.10
2018-07-27T20:40:59.938Z,94.20
2018-07-27T20:43:27.471Z,93.70
2018-07-27T20:45:54.979Z,93.90
2018-07-27T20:48:22.520Z,93.90
2018-07-27T20:50:50.036Z,94.10
2018-07-27T20:53:17.541Z,94.40
2018-07-27T20:55:45.036Z,94.50
2018-07-27T20:58:12.634Z,94.90
2018-07-27T21:00:40.122Z,94.90
2018-07-27T21:03:07.653Z,95.10
2018-07-27T21:05:35.162Z,94.90
2018-07-27T21:08:02.726Z,95.00
2018-07-27T21:10:30.279Z,95.40
2018-07-27T21:12:57.883Z,96.10
2018-07-27T21:15:25.429Z,96.30
2018-07-27T21:17:52.943Z,96.60
2018-07-27T21:20:20.475Z,96.50
2018-07-27T21:22:48.007Z,96.70
2018-07-27T21:25:15.517Z,96.50
2018-07-27T21:30:10.707Z,96.70
2018-07-27T21:32:38.238Z,97.00
2018-07-27T21:35:05.736Z,97.10
2018-07-27T21:37:33.275Z,97.50
2018-07-27T21:40:00.772Z,98.30
2018-07-27T21:42:28.300Z,98.60
2018-07-27T21:44:55.827Z,98.90
2018-07-27T21:47:23.396Z,99.30
2018-07-27T21:49:51.105Z,99.80
2018-07-27T21:54:46.237Z,99.90
2018-07-27T21:57:13.759Z,99.90
2018-07-27T21:59:41.317Z,99.90
2018-07-27T22:04:36.716Z,99.90
2018-07-27T22:07:04.356Z,99.90
2018-07-27T22:09:31.928Z,99.90
2018-07-27T22:11:59.492Z,99.90
2018-07-27T22:14:27.256Z,99.90
2018-07-27T22:16:55.203Z,99.90
2018-07-27T22:19:22.900Z,99.90
2018-07-27T22:21:50.396Z,99.90
2018-07-27T22:26:45.403Z,99.90
2018-07-27T22:31:40.501Z,99.90
2018-07-27T22:34:08.015Z,99.90
2018-07-27T22:36:35.571Z,99.90
2018-07-27T22:39:05.207Z,99.90
2018-07-27T22:41:32.781Z,99.90
2018-07-27T22:44:00.416Z,99.90
2018-07-27T22:46:27.910Z,99.90
2018-07-27T22:53:50.499Z,99.90
2018-07-27T22:56:18.208Z,99.90
2018-07-27T22:58:45.715Z,99.90
2018-07-27T23:03:40.796Z,99.90
2018-07-27T23:08:35.908Z,99.90
2018-07-27T23:11:03.473Z,99.90
2018-07-27T23:13:30.994Z,99.90
2018-07-27T23:15:58.502Z,99.90
2018-07-27T23:18:26.363Z,99.90
2018-07-27T23:20:53.930Z,99.90
2018-07-27T23:25:49.024Z,99.90
2018-07-27T23:28:16.675Z,99.90
2018-07-27T23:30:44.232Z,99.90
2018-07-27T23:33:11.779Z,99.90
2018-07-27T23:35:39.297Z,99.90
2018-07-27T23:38:06.913Z,99.90
2018-07-27T23:40:34.387Z,99.90
2018-07-27T23:43:01.919Z,99.90
2018-07-27T23:45:31.928Z,99.90
2018-07-27T23:50:26.955Z,99.90
2018-07-27T23:52:55.254Z,99.90
2018-07-27T23:55:23.179Z,99.90
2018-07-27T23:57:50.760Z,99.90
